sensor_id;sensor_type;location;lat;lon;timestamp;temperature;humidity
81867;DHT22;71318;-36.550;-64.300;2023-08-08T00:02:06;6.00;49.90
81867;DHT22;71318;-36.550;-64.300;2023-08-08T00:04:32;6.00;50.00
81867;DHT22;71318;-36.550;-64.300;2023-08-08T00:06:59;5.90;50.30
81867;DHT22;71318;-36.550;-64.300;2023-08-08T00:09:25;5.80;50.50
81867;DHT22;71318;-36.550;-64.300;2023-08-08T00:11:51;5.70;50.80
81867;DHT22;71318;-36.550;-64.300;2023-08-08T00:14:18;5.60;51.20
81867;DHT22;71318;-36.550;-64.300;2023-08-08T00:16:44;5.60;51.20
81867;DHT22;71318;-36.550;-64.300;2023-08-08T00:19:10;5.70;50.80
81867;DHT22;71318;-36.550;-64.300;2023-08-08T00:21:37;5.70;50.80
81867;DHT22;71318;-36.550;-64.300;2023-08-08T00:24:03;5.60;51.30
81867;DHT22;71318;-36.550;-64.300;2023-08-08T00:26:30;5.50;51.70
81867;DHT22;71318;-36.550;-64.300;2023-08-08T00:28:56;5.40;52.30
81867;DHT22;71318;-36.550;-64.300;2023-08-08T00:31:22;5.10;52.80
81867;DHT22;71318;-36.550;-64.300;2023-08-08T00:33:49;4.90;53.30
81867;DHT22;71318;-36.550;-64.300;2023-08-08T00:36:15;4.80;54.00
81867;DHT22;71318;-36.550;-64.300;2023-08-08T00:38:41;5.10;53.20
81867;DHT22;71318;-36.550;-64.300;2023-08-08T00:41:08;5.20;53.00
81867;DHT22;71318;-36.550;-64.300;2023-08-08T00:43:34;5.20;52.90
81867;DHT22;71318;-36.550;-64.300;2023-08-08T00:46:01;5.20;53.00
81867;DHT22;71318;-36.550;-64.300;2023-08-08T00:48:27;5.30;52.70
81867;DHT22;71318;-36.550;-64.300;2023-08-08T00:50:53;5.20;53.10
81867;DHT22;71318;-36.550;-64.300;2023-08-08T00:53:20;5.10;53.50
81867;DHT22;71318;-36.550;-64.300;2023-08-08T00:55:48;5.20;53.50
81867;DHT22;71318;-36.550;-64.300;2023-08-08T00:58:14;5.30;53.40
81867;DHT22;71318;-36.550;-64.300;2023-08-08T01:00:41;5.50;52.90
81867;DHT22;71318;-36.550;-64.300;2023-08-08T01:03:08;5.30;53.30
81867;DHT22;71318;-36.550;-64.300;2023-08-08T01:05:37;5.10;54.00
81867;DHT22;71318;-36.550;-64.300;2023-08-08T01:08:04;5.00;54.50
81867;DHT22;71318;-36.550;-64.300;2023-08-08T01:10:39;4.90;55.10
81867;DHT22;71318;-36.550;-64.300;2023-08-08T01:13:09;4.80;55.60
81867;DHT22;71318;-36.550;-64.300;2023-08-08T01:15:36;4.70;56.40
81867;DHT22;71318;-36.550;-64.300;2023-08-08T01:18:04;4.60;56.90
81867;DHT22;71318;-36.550;-64.300;2023-08-08T01:20:33;4.50;57.50
81867;DHT22;71318;-36.550;-64.300;2023-08-08T01:23:17;4.30;58.20
81867;DHT22;71318;-36.550;-64.300;2023-08-08T01:25:46;4.40;58.50
81867;DHT22;71318;-36.550;-64.300;2023-08-08T01:28:12;4.40;58.30
81867;DHT22;71318;-36.550;-64.300;2023-08-08T01:30:39;4.40;58.60
81867;DHT22;71318;-36.550;-64.300;2023-08-08T01:33:06;4.40;59.00
81867;DHT22;71318;-36.550;-64.300;2023-08-08T01:35:34;4.40;59.20
81867;DHT22;71318;-36.550;-64.300;2023-08-08T01:38:09;4.30;59.40
81867;DHT22;71318;-36.550;-64.300;2023-08-08T01:40:36;4.10;60.40
81867;DHT22;71318;-36.550;-64.300;2023-08-08T01:43:03;4.00;61.00
81867;DHT22;71318;-36.550;-64.300;2023-08-08T01:45:29;3.90;61.60
81867;DHT22;71318;-36.550;-64.300;2023-08-08T01:47:56;3.70;62.20
81867;DHT22;71318;-36.550;-64.300;2023-08-08T01:50:22;3.60;63.30
81867;DHT22;71318;-36.550;-64.300;2023-08-08T01:52:49;3.70;64.10
81867;DHT22;71318;-36.550;-64.300;2023-08-08T01:55:15;3.80;63.90
81867;DHT22;71318;-36.550;-64.300;2023-08-08T01:57:41;4.00;63.50
81867;DHT22;71318;-36.550;-64.300;2023-08-08T02:00:08;4.30;63.00
81867;DHT22;71318;-36.550;-64.300;2023-08-08T02:02:34;4.50;62.40
81867;DHT22;71318;-36.550;-64.300;2023-08-08T02:05:01;4.50;62.80
81867;DHT22;71318;-36.550;-64.300;2023-08-08T02:07:28;4.60;62.50
81867;DHT22;71318;-36.550;-64.300;2023-08-08T02:09:54;4.90;61.40
81867;DHT22;71318;-36.550;-64.300;2023-08-08T02:12:21;5.10;60.50
81867;DHT22;71318;-36.550;-64.300;2023-08-08T02:14:47;5.30;59.50
81867;DHT22;71318;-36.550;-64.300;2023-08-08T02:17:14;5.40;59.10
81867;DHT22;71318;-36.550;-64.300;2023-08-08T02:19:40;5.40;59.00
81867;DHT22;71318;-36.550;-64.300;2023-08-08T02:22:06;5.40;59.10
81867;DHT22;71318;-36.550;-64.300;2023-08-08T02:24:33;5.30;59.20
81867;DHT22;71318;-36.550;-64.300;2023-08-08T02:26:59;5.30;59.50
81867;DHT22;71318;-36.550;-64.300;2023-08-08T02:29:25;5.20;59.80
81867;DHT22;71318;-36.550;-64.300;2023-08-08T02:31:52;5.10;60.00
81867;DHT22;71318;-36.550;-64.300;2023-08-08T02:34:18;5.00;60.30
81867;DHT22;71318;-36.550;-64.300;2023-08-08T02:36:44;5.10;60.30
81867;DHT22;71318;-36.550;-64.300;2023-08-08T02:39:11;5.10;60.30
81867;DHT22;71318;-36.550;-64.300;2023-08-08T02:41:37;5.00;60.70
81867;DHT22;71318;-36.550;-64.300;2023-08-08T02:44:04;5.10;60.50
81867;DHT22;71318;-36.550;-64.300;2023-08-08T02:46:30;5.20;60.20
81867;DHT22;71318;-36.550;-64.300;2023-08-08T02:48:56;5.10;60.40
81867;DHT22;71318;-36.550;-64.300;2023-08-08T02:51:23;5.10;60.60
81867;DHT22;71318;-36.550;-64.300;2023-08-08T02:53:49;5.20;60.50
81867;DHT22;71318;-36.550;-64.300;2023-08-08T02:56:15;5.00;60.80
81867;DHT22;71318;-36.550;-64.300;2023-08-08T02:58:42;5.00;61.30
81867;DHT22;71318;-36.550;-64.300;2023-08-08T03:01:08;5.10;61.20
81867;DHT22;71318;-36.550;-64.300;2023-08-08T03:03:34;5.00;61.20
81867;DHT22;71318;-36.550;-64.300;2023-08-08T03:06:01;5.00;61.30
81867;DHT22;71318;-36.550;-64.300;2023-08-08T03:08:28;5.00;61.50
81867;DHT22;71318;-36.550;-64.300;2023-08-08T03:10:54;5.00;61.50
81867;DHT22;71318;-36.550;-64.300;2023-08-08T03:13:21;4.90;61.60
81867;DHT22;71318;-36.550;-64.300;2023-08-08T03:15:48;4.90;61.90
81867;DHT22;71318;-36.550;-64.300;2023-08-08T03:18:14;4.80;62.20
81867;DHT22;71318;-36.550;-64.300;2023-08-08T03:20:41;4.70;62.60
81867;DHT22;71318;-36.550;-64.300;2023-08-08T03:23:07;4.70;62.60
81867;DHT22;71318;-36.550;-64.300;2023-08-08T03:25:33;4.60;63.00
81867;DHT22;71318;-36.550;-64.300;2023-08-08T03:28:00;4.50;63.60
81867;DHT22;71318;-36.550;-64.300;2023-08-08T03:30:26;4.40;64.00
81867;DHT22;71318;-36.550;-64.300;2023-08-08T03:32:52;4.40;64.30
81867;DHT22;71318;-36.550;-64.300;2023-08-08T03:35:19;4.20;64.70
81867;DHT22;71318;-36.550;-64.300;2023-08-08T03:37:45;4.20;65.20
81867;DHT22;71318;-36.550;-64.300;2023-08-08T03:40:12;4.30;65.00
81867;DHT22;71318;-36.550;-64.300;2023-08-08T03:42:40;4.20;65.10
81867;DHT22;71318;-36.550;-64.300;2023-08-08T03:45:07;4.20;65.10
81867;DHT22;71318;-36.550;-64.300;2023-08-08T03:47:33;4.20;65.40
81867;DHT22;71318;-36.550;-64.300;2023-08-08T03:50:00;4.20;65.40
81867;DHT22;71318;-36.550;-64.300;2023-08-08T03:52:26;4.20;65.70
81867;DHT22;71318;-36.550;-64.300;2023-08-08T03:54:52;4.10;66.10
81867;DHT22;71318;-36.550;-64.300;2023-08-08T03:57:19;4.10;66.10
81867;DHT22;71318;-36.550;-64.300;2023-08-08T03:59:45;4.00;66.50
81867;DHT22;71318;-36.550;-64.300;2023-08-08T04:02:12;3.90;66.90
81867;DHT22;71318;-36.550;-64.300;2023-08-08T04:04:39;3.80;67.40
81867;DHT22;71318;-36.550;-64.300;2023-08-08T04:07:05;3.70;67.40
81867;DHT22;71318;-36.550;-64.300;2023-08-08T04:09:31;3.70;67.90
81867;DHT22;71318;-36.550;-64.300;2023-08-08T04:11:58;3.60;68.10
81867;DHT22;71318;-36.550;-64.300;2023-08-08T04:14:24;3.60;68.20
81867;DHT22;71318;-36.550;-64.300;2023-08-08T04:16:51;3.60;68.20
81867;DHT22;71318;-36.550;-64.300;2023-08-08T04:19:17;3.60;68.30
81867;DHT22;71318;-36.550;-64.300;2023-08-08T04:21:44;3.70;68.20
81867;DHT22;71318;-36.550;-64.300;2023-08-08T04:24:10;3.60;68.30
81867;DHT22;71318;-36.550;-64.300;2023-08-08T04:26:38;3.60;68.30
81867;DHT22;71318;-36.550;-64.300;2023-08-08T04:29:05;3.70;68.30
81867;DHT22;71318;-36.550;-64.300;2023-08-08T04:31:31;3.70;67.90
81867;DHT22;71318;-36.550;-64.300;2023-08-08T04:33:58;3.60;68.10
81867;DHT22;71318;-36.550;-64.300;2023-08-08T04:36:26;3.50;68.30
81867;DHT22;71318;-36.550;-64.300;2023-08-08T04:38:53;3.50;68.40
81867;DHT22;71318;-36.550;-64.300;2023-08-08T04:41:20;3.50;68.50
81867;DHT22;71318;-36.550;-64.300;2023-08-08T04:43:46;3.40;68.80
81867;DHT22;71318;-36.550;-64.300;2023-08-08T04:46:12;3.40;69.10
81867;DHT22;71318;-36.550;-64.300;2023-08-08T04:48:39;3.20;69.50
81867;DHT22;71318;-36.550;-64.300;2023-08-08T04:51:05;3.10;70.20
81867;DHT22;71318;-36.550;-64.300;2023-08-08T04:53:32;3.10;70.20
81867;DHT22;71318;-36.550;-64.300;2023-08-08T04:55:58;3.10;70.40
81867;DHT22;71318;-36.550;-64.300;2023-08-08T04:58:24;3.10;70.20
81867;DHT22;71318;-36.550;-64.300;2023-08-08T05:00:51;3.10;70.40
81867;DHT22;71318;-36.550;-64.300;2023-08-08T05:03:17;2.90;70.90
81867;DHT22;71318;-36.550;-64.300;2023-08-08T05:05:44;2.80;71.20
81867;DHT22;71318;-36.550;-64.300;2023-08-08T05:08:11;2.70;71.40
81867;DHT22;71318;-36.550;-64.300;2023-08-08T05:10:37;2.50;72.00
81867;DHT22;71318;-36.550;-64.300;2023-08-08T05:13:03;2.40;72.90
81867;DHT22;71318;-36.550;-64.300;2023-08-08T05:15:30;2.30;73.20
81867;DHT22;71318;-36.550;-64.300;2023-08-08T05:17:56;2.20;73.80
81867;DHT22;71318;-36.550;-64.300;2023-08-08T05:20:23;2.20;74.00
81867;DHT22;71318;-36.550;-64.300;2023-08-08T05:22:49;2.30;74.00
81867;DHT22;71318;-36.550;-64.300;2023-08-08T05:25:15;2.20;73.90
81867;DHT22;71318;-36.550;-64.300;2023-08-08T05:27:42;2.40;73.40
81867;DHT22;71318;-36.550;-64.300;2023-08-08T05:30:08;2.20;73.80
81867;DHT22;71318;-36.550;-64.300;2023-08-08T05:32:35;2.30;73.90
81867;DHT22;71318;-36.550;-64.300;2023-08-08T05:35:01;2.20;73.90
81867;DHT22;71318;-36.550;-64.300;2023-08-08T05:37:30;2.20;74.10
81867;DHT22;71318;-36.550;-64.300;2023-08-08T05:39:56;2.10;74.30
81867;DHT22;71318;-36.550;-64.300;2023-08-08T05:42:22;2.10;74.80
81867;DHT22;71318;-36.550;-64.300;2023-08-08T05:44:49;2.20;74.50
81867;DHT22;71318;-36.550;-64.300;2023-08-08T05:47:15;2.10;74.80
81867;DHT22;71318;-36.550;-64.300;2023-08-08T05:49:42;2.10;74.50
81867;DHT22;71318;-36.550;-64.300;2023-08-08T05:52:08;2.20;74.70
81867;DHT22;71318;-36.550;-64.300;2023-08-08T05:54:34;2.20;74.20
81867;DHT22;71318;-36.550;-64.300;2023-08-08T05:57:01;2.20;74.40
81867;DHT22;71318;-36.550;-64.300;2023-08-08T05:59:28;2.10;74.40
81867;DHT22;71318;-36.550;-64.300;2023-08-08T06:01:54;2.10;74.90
81867;DHT22;71318;-36.550;-64.300;2023-08-08T06:04:21;2.10;75.10
81867;DHT22;71318;-36.550;-64.300;2023-08-08T06:06:47;2.00;75.30
81867;DHT22;71318;-36.550;-64.300;2023-08-08T06:09:15;2.00;75.50
81867;DHT22;71318;-36.550;-64.300;2023-08-08T06:11:41;2.10;75.40
81867;DHT22;71318;-36.550;-64.300;2023-08-08T06:14:08;2.10;75.10
81867;DHT22;71318;-36.550;-64.300;2023-08-08T06:16:34;2.00;75.30
81867;DHT22;71318;-36.550;-64.300;2023-08-08T06:19:00;2.00;76.00
81867;DHT22;71318;-36.550;-64.300;2023-08-08T06:21:27;2.10;75.90
81867;DHT22;71318;-36.550;-64.300;2023-08-08T06:23:53;2.00;76.20
81867;DHT22;71318;-36.550;-64.300;2023-08-08T06:26:21;1.90;76.50
81867;DHT22;71318;-36.550;-64.300;2023-08-08T06:28:47;2.00;76.70
81867;DHT22;71318;-36.550;-64.300;2023-08-08T06:31:14;1.80;76.60
81867;DHT22;71318;-36.550;-64.300;2023-08-08T06:33:41;1.80;77.50
81867;DHT22;71318;-36.550;-64.300;2023-08-08T06:36:08;1.80;77.70
81867;DHT22;71318;-36.550;-64.300;2023-08-08T06:38:35;1.70;77.90
81867;DHT22;71318;-36.550;-64.300;2023-08-08T06:41:02;1.70;78.40
81867;DHT22;71318;-36.550;-64.300;2023-08-08T06:43:29;1.70;78.40
81867;DHT22;71318;-36.550;-64.300;2023-08-08T06:45:56;1.70;78.70
81867;DHT22;71318;-36.550;-64.300;2023-08-08T06:48:22;1.50;79.00
81867;DHT22;71318;-36.550;-64.300;2023-08-08T06:50:49;1.50;79.60
81867;DHT22;71318;-36.550;-64.300;2023-08-08T06:53:15;1.50;80.00
81867;DHT22;71318;-36.550;-64.300;2023-08-08T06:55:42;1.60;79.80
81867;DHT22;71318;-36.550;-64.300;2023-08-08T06:58:08;1.60;79.80
81867;DHT22;71318;-36.550;-64.300;2023-08-08T07:00:34;1.60;80.10
81867;DHT22;71318;-36.550;-64.300;2023-08-08T07:03:01;1.70;80.10
81867;DHT22;71318;-36.550;-64.300;2023-08-08T07:05:27;1.70;79.80
81867;DHT22;71318;-36.550;-64.300;2023-08-08T07:07:54;1.60;80.20
81867;DHT22;71318;-36.550;-64.300;2023-08-08T07:10:21;1.60;80.10
81867;DHT22;71318;-36.550;-64.300;2023-08-08T07:12:47;1.60;80.20
81867;DHT22;71318;-36.550;-64.300;2023-08-08T07:15:14;1.50;80.50
81867;DHT22;71318;-36.550;-64.300;2023-08-08T07:17:41;1.40;80.60
81867;DHT22;71318;-36.550;-64.300;2023-08-08T07:20:07;1.50;81.20
81867;DHT22;71318;-36.550;-64.300;2023-08-08T07:22:34;1.50;81.00
81867;DHT22;71318;-36.550;-64.300;2023-08-08T07:25:01;1.50;81.00
81867;DHT22;71318;-36.550;-64.300;2023-08-08T07:27:27;1.40;81.10
81867;DHT22;71318;-36.550;-64.300;2023-08-08T07:29:54;1.40;81.40
81867;DHT22;71318;-36.550;-64.300;2023-08-08T07:32:20;1.50;81.30
81867;DHT22;71318;-36.550;-64.300;2023-08-08T07:34:46;1.40;81.60
81867;DHT22;71318;-36.550;-64.300;2023-08-08T07:37:13;1.30;82.00
81867;DHT22;71318;-36.550;-64.300;2023-08-08T07:39:40;1.40;82.00
81867;DHT22;71318;-36.550;-64.300;2023-08-08T07:42:06;1.50;81.80
81867;DHT22;71318;-36.550;-64.300;2023-08-08T07:44:33;1.50;81.80
81867;DHT22;71318;-36.550;-64.300;2023-08-08T07:47:00;1.50;81.80
81867;DHT22;71318;-36.550;-64.300;2023-08-08T07:49:27;1.50;81.70
81867;DHT22;71318;-36.550;-64.300;2023-08-08T07:51:53;1.50;82.00
81867;DHT22;71318;-36.550;-64.300;2023-08-08T07:54:19;1.50;82.00
81867;DHT22;71318;-36.550;-64.300;2023-08-08T07:56:46;1.60;82.20
81867;DHT22;71318;-36.550;-64.300;2023-08-08T07:59:12;1.50;82.00
81867;DHT22;71318;-36.550;-64.300;2023-08-08T08:01:39;1.50;82.30
81867;DHT22;71318;-36.550;-64.300;2023-08-08T08:04:05;1.60;82.30
81867;DHT22;71318;-36.550;-64.300;2023-08-08T08:06:31;1.60;82.20
81867;DHT22;71318;-36.550;-64.300;2023-08-08T08:08:58;1.70;82.20
81867;DHT22;71318;-36.550;-64.300;2023-08-08T08:11:24;1.70;82.00
81867;DHT22;71318;-36.550;-64.300;2023-08-08T08:13:51;1.70;82.00
81867;DHT22;71318;-36.550;-64.300;2023-08-08T08:16:17;1.80;82.10
81867;DHT22;71318;-36.550;-64.300;2023-08-08T08:18:44;1.80;81.60
81867;DHT22;71318;-36.550;-64.300;2023-08-08T08:21:10;1.80;81.70
81867;DHT22;71318;-36.550;-64.300;2023-08-08T08:23:38;1.80;81.70
81867;DHT22;71318;-36.550;-64.300;2023-08-08T08:26:05;1.90;81.60
81867;DHT22;71318;-36.550;-64.300;2023-08-08T08:28:32;1.80;81.90
81867;DHT22;71318;-36.550;-64.300;2023-08-08T08:31:03;1.90;81.90
81867;DHT22;71318;-36.550;-64.300;2023-08-08T08:33:30;1.90;81.60
81867;DHT22;71318;-36.550;-64.300;2023-08-08T08:35:56;1.90;81.40
81867;DHT22;71318;-36.550;-64.300;2023-08-08T08:38:22;1.90;81.60
81867;DHT22;71318;-36.550;-64.300;2023-08-08T08:40:49;2.00;81.20
81867;DHT22;71318;-36.550;-64.300;2023-08-08T08:43:15;2.00;81.20
81867;DHT22;71318;-36.550;-64.300;2023-08-08T08:45:42;2.00;81.30
81867;DHT22;71318;-36.550;-64.300;2023-08-08T08:48:09;2.00;81.40
81867;DHT22;71318;-36.550;-64.300;2023-08-08T08:50:38;2.00;81.30
81867;DHT22;71318;-36.550;-64.300;2023-08-08T08:53:05;2.00;81.60
81867;DHT22;71318;-36.550;-64.300;2023-08-08T08:55:32;2.00;81.70
81867;DHT22;71318;-36.550;-64.300;2023-08-08T08:57:58;2.00;81.60
81867;DHT22;71318;-36.550;-64.300;2023-08-08T09:00:25;2.00;81.60
81867;DHT22;71318;-36.550;-64.300;2023-08-08T09:02:52;2.00;81.90
81867;DHT22;71318;-36.550;-64.300;2023-08-08T09:05:21;2.00;81.90
81867;DHT22;71318;-36.550;-64.300;2023-08-08T09:07:48;2.00;82.00
81867;DHT22;71318;-36.550;-64.300;2023-08-08T09:10:17;2.10;82.20
81867;DHT22;71318;-36.550;-64.300;2023-08-08T09:12:44;2.10;82.10
81867;DHT22;71318;-36.550;-64.300;2023-08-08T09:15:11;2.10;82.30
81867;DHT22;71318;-36.550;-64.300;2023-08-08T09:17:41;2.10;82.30
81867;DHT22;71318;-36.550;-64.300;2023-08-08T09:20:09;2.10;82.60
81867;DHT22;71318;-36.550;-64.300;2023-08-08T09:22:38;2.20;82.60
81867;DHT22;71318;-36.550;-64.300;2023-08-08T09:25:05;2.20;82.60
81867;DHT22;71318;-36.550;-64.300;2023-08-08T09:27:32;2.20;82.50
81867;DHT22;71318;-36.550;-64.300;2023-08-08T09:29:58;2.30;82.40
81867;DHT22;71318;-36.550;-64.300;2023-08-08T09:32:29;2.40;82.50
81867;DHT22;71318;-36.550;-64.300;2023-08-08T09:34:56;2.40;82.50
81867;DHT22;71318;-36.550;-64.300;2023-08-08T09:37:23;2.40;82.90
81867;DHT22;71318;-36.550;-64.300;2023-08-08T09:39:56;2.40;82.60
81867;DHT22;71318;-36.550;-64.300;2023-08-08T09:42:23;2.50;82.50
81867;DHT22;71318;-36.550;-64.300;2023-08-08T09:44:50;2.50;82.50
81867;DHT22;71318;-36.550;-64.300;2023-08-08T09:47:16;2.50;82.60
81867;DHT22;71318;-36.550;-64.300;2023-08-08T09:49:43;2.60;82.60
81867;DHT22;71318;-36.550;-64.300;2023-08-08T09:52:10;2.60;82.50
81867;DHT22;71318;-36.550;-64.300;2023-08-08T09:54:37;2.60;82.70
81867;DHT22;71318;-36.550;-64.300;2023-08-08T09:57:05;2.60;82.80
81867;DHT22;71318;-36.550;-64.300;2023-08-08T09:59:32;2.50;82.90
81867;DHT22;71318;-36.550;-64.300;2023-08-08T10:01:58;2.60;83.00
81867;DHT22;71318;-36.550;-64.300;2023-08-08T10:04:25;2.60;82.90
81867;DHT22;71318;-36.550;-64.300;2023-08-08T10:06:51;2.60;83.30
81867;DHT22;71318;-36.550;-64.300;2023-08-08T10:09:18;2.60;83.40
81867;DHT22;71318;-36.550;-64.300;2023-08-08T10:11:45;2.50;83.40
81867;DHT22;71318;-36.550;-64.300;2023-08-08T10:14:12;2.50;83.60
81867;DHT22;71318;-36.550;-64.300;2023-08-08T10:16:44;2.40;84.00
81867;DHT22;71318;-36.550;-64.300;2023-08-08T10:19:10;2.40;84.40
81867;DHT22;71318;-36.550;-64.300;2023-08-08T10:21:37;2.40;84.60
81867;DHT22;71318;-36.550;-64.300;2023-08-08T10:24:07;2.40;84.60
81867;DHT22;71318;-36.550;-64.300;2023-08-08T10:26:34;2.30;85.00
81867;DHT22;71318;-36.550;-64.300;2023-08-08T10:29:20;2.30;85.10
81867;DHT22;71318;-36.550;-64.300;2023-08-08T10:31:53;2.30;85.30
81867;DHT22;71318;-36.550;-64.300;2023-08-08T10:34:20;2.30;85.20
81867;DHT22;71318;-36.550;-64.300;2023-08-08T10:36:51;2.20;85.60
81867;DHT22;71318;-36.550;-64.300;2023-08-08T10:39:20;2.20;85.70
81867;DHT22;71318;-36.550;-64.300;2023-08-08T10:41:47;2.20;86.10
81867;DHT22;71318;-36.550;-64.300;2023-08-08T10:44:21;2.20;86.20
81867;DHT22;71318;-36.550;-64.300;2023-08-08T10:46:48;2.30;86.30
81867;DHT22;71318;-36.550;-64.300;2023-08-08T10:49:14;2.20;86.20
81867;DHT22;71318;-36.550;-64.300;2023-08-08T10:51:44;2.20;86.60
81867;DHT22;71318;-36.550;-64.300;2023-08-08T10:54:13;2.30;86.90
81867;DHT22;71318;-36.550;-64.300;2023-08-08T10:56:40;2.30;86.80
81867;DHT22;71318;-36.550;-64.300;2023-08-08T10:59:17;2.30;86.70
81867;DHT22;71318;-36.550;-64.300;2023-08-08T11:01:47;2.40;86.60
81867;DHT22;71318;-36.550;-64.300;2023-08-08T11:04:15;2.40;86.50
81867;DHT22;71318;-36.550;-64.300;2023-08-08T11:06:42;2.50;86.40
81867;DHT22;71318;-36.550;-64.300;2023-08-08T11:09:08;2.50;86.40
81867;DHT22;71318;-36.550;-64.300;2023-08-08T11:11:39;2.50;86.40
81867;DHT22;71318;-36.550;-64.300;2023-08-08T11:14:23;2.50;86.60
81867;DHT22;71318;-36.550;-64.300;2023-08-08T11:16:50;2.50;86.60
81867;DHT22;71318;-36.550;-64.300;2023-08-08T11:19:17;2.60;86.70
81867;DHT22;71318;-36.550;-64.300;2023-08-08T11:21:47;2.60;86.60
81867;DHT22;71318;-36.550;-64.300;2023-08-08T11:24:14;2.60;86.70
81867;DHT22;71318;-36.550;-64.300;2023-08-08T11:26:41;2.60;86.70
81867;DHT22;71318;-36.550;-64.300;2023-08-08T11:29:07;2.60;86.70
81867;DHT22;71318;-36.550;-64.300;2023-08-08T11:31:34;2.50;86.90
81867;DHT22;71318;-36.550;-64.300;2023-08-08T11:34:01;2.60;86.90
81867;DHT22;71318;-36.550;-64.300;2023-08-08T11:36:34;2.60;86.90
81867;DHT22;71318;-36.550;-64.300;2023-08-08T11:39:01;2.60;86.90
81867;DHT22;71318;-36.550;-64.300;2023-08-08T11:41:34;2.60;86.90
81867;DHT22;71318;-36.550;-64.300;2023-08-08T11:44:01;2.60;87.00
81867;DHT22;71318;-36.550;-64.300;2023-08-08T11:46:28;2.70;87.00
81867;DHT22;71318;-36.550;-64.300;2023-08-08T11:49:01;2.70;87.00
81867;DHT22;71318;-36.550;-64.300;2023-08-08T11:51:28;2.80;86.90
81867;DHT22;71318;-36.550;-64.300;2023-08-08T11:53:54;2.70;86.90
81867;DHT22;71318;-36.550;-64.300;2023-08-08T11:56:21;2.80;87.10
81867;DHT22;71318;-36.550;-64.300;2023-08-08T11:58:51;2.90;86.90
81867;DHT22;71318;-36.550;-64.300;2023-08-08T12:01:25;2.90;86.70
81867;DHT22;71318;-36.550;-64.300;2023-08-08T12:03:51;3.00;86.80
81867;DHT22;71318;-36.550;-64.300;2023-08-08T12:06:18;3.10;86.90
81867;DHT22;71318;-36.550;-64.300;2023-08-08T12:08:46;3.20;86.30
81867;DHT22;71318;-36.550;-64.300;2023-08-08T12:11:14;3.30;86.30
81867;DHT22;71318;-36.550;-64.300;2023-08-08T12:13:41;3.40;86.00
81867;DHT22;71318;-36.550;-64.300;2023-08-08T12:16:11;3.50;85.40
81867;DHT22;71318;-36.550;-64.300;2023-08-08T12:18:38;3.50;85.00
81867;DHT22;71318;-36.550;-64.300;2023-08-08T12:21:07;3.60;85.50
81867;DHT22;71318;-36.550;-64.300;2023-08-08T12:23:34;3.70;84.40
81867;DHT22;71318;-36.550;-64.300;2023-08-08T12:26:02;3.70;84.40
81867;DHT22;71318;-36.550;-64.300;2023-08-08T12:28:31;3.80;84.60
81867;DHT22;71318;-36.550;-64.300;2023-08-08T12:30:57;3.70;84.10
81867;DHT22;71318;-36.550;-64.300;2023-08-08T12:33:24;3.80;84.50
81867;DHT22;71318;-36.550;-64.300;2023-08-08T12:35:50;3.80;84.20
81867;DHT22;71318;-36.550;-64.300;2023-08-08T12:38:17;3.80;84.80
81867;DHT22;71318;-36.550;-64.300;2023-08-08T12:40:43;3.80;84.10
81867;DHT22;71318;-36.550;-64.300;2023-08-08T12:43:09;3.90;84.00
81867;DHT22;71318;-36.550;-64.300;2023-08-08T12:45:43;3.90;84.10
81867;DHT22;71318;-36.550;-64.300;2023-08-08T12:48:13;4.10;83.70
81867;DHT22;71318;-36.550;-64.300;2023-08-08T12:50:39;4.10;83.70
81867;DHT22;71318;-36.550;-64.300;2023-08-08T12:53:06;4.20;83.80
81867;DHT22;71318;-36.550;-64.300;2023-08-08T12:55:33;4.30;83.00
81867;DHT22;71318;-36.550;-64.300;2023-08-08T12:58:01;4.20;83.20
81867;DHT22;71318;-36.550;-64.300;2023-08-08T13:00:27;4.30;82.90
81867;DHT22;71318;-36.550;-64.300;2023-08-08T13:02:54;4.30;82.90
81867;DHT22;71318;-36.550;-64.300;2023-08-08T13:05:20;4.30;83.30
81867;DHT22;71318;-36.550;-64.300;2023-08-08T13:07:46;4.40;83.20
81867;DHT22;71318;-36.550;-64.300;2023-08-08T13:10:13;4.50;83.10
81867;DHT22;71318;-36.550;-64.300;2023-08-08T13:12:40;4.80;82.30
81867;DHT22;71318;-36.550;-64.300;2023-08-08T13:15:06;4.70;82.00
81867;DHT22;71318;-36.550;-64.300;2023-08-08T13:17:33;5.00;82.30
81867;DHT22;71318;-36.550;-64.300;2023-08-08T13:19:59;5.60;80.40
81867;DHT22;71318;-36.550;-64.300;2023-08-08T13:22:26;5.80;78.70
81867;DHT22;71318;-36.550;-64.300;2023-08-08T13:24:52;5.60;79.50
81867;DHT22;71318;-36.550;-64.300;2023-08-08T13:27:19;5.60;79.90
81867;DHT22;71318;-36.550;-64.300;2023-08-08T13:29:45;5.40;79.70
81867;DHT22;71318;-36.550;-64.300;2023-08-08T13:32:11;5.40;80.30
81867;DHT22;71318;-36.550;-64.300;2023-08-08T13:34:38;5.40;80.70
81867;DHT22;71318;-36.550;-64.300;2023-08-08T13:37:04;5.60;79.90
81867;DHT22;71318;-36.550;-64.300;2023-08-08T13:39:30;5.60;80.20
81867;DHT22;71318;-36.550;-64.300;2023-08-08T13:42:00;5.90;79.70
81867;DHT22;71318;-36.550;-64.300;2023-08-08T13:44:26;6.00;79.40
81867;DHT22;71318;-36.550;-64.300;2023-08-08T13:46:58;6.10;78.80
81867;DHT22;71318;-36.550;-64.300;2023-08-08T13:49:30;6.30;78.70
81867;DHT22;71318;-36.550;-64.300;2023-08-08T13:52:05;6.40;78.40
81867;DHT22;71318;-36.550;-64.300;2023-08-08T13:54:31;6.60;78.30
81867;DHT22;71318;-36.550;-64.300;2023-08-08T13:56:57;6.60;77.90
81867;DHT22;71318;-36.550;-64.300;2023-08-08T13:59:31;6.90;78.10
81867;DHT22;71318;-36.550;-64.300;2023-08-08T14:02:01;7.10;77.00
81867;DHT22;71318;-36.550;-64.300;2023-08-08T14:04:28;7.00;76.20
81867;DHT22;71318;-36.550;-64.300;2023-08-08T14:06:54;7.10;76.50
81867;DHT22;71318;-36.550;-64.300;2023-08-08T14:09:20;7.20;75.80
81867;DHT22;71318;-36.550;-64.300;2023-08-08T14:11:48;7.30;76.00
81867;DHT22;71318;-36.550;-64.300;2023-08-08T14:14:20;7.30;75.40
81867;DHT22;71318;-36.550;-64.300;2023-08-08T14:16:47;7.50;75.70
81867;DHT22;71318;-36.550;-64.300;2023-08-08T14:19:13;7.70;75.00
81867;DHT22;71318;-36.550;-64.300;2023-08-08T14:21:40;7.80;74.40
81867;DHT22;71318;-36.550;-64.300;2023-08-08T14:24:06;7.90;73.10
81867;DHT22;71318;-36.550;-64.300;2023-08-08T14:26:33;7.80;73.70
81867;DHT22;71318;-36.550;-64.300;2023-08-08T14:28:59;7.80;74.10
81867;DHT22;71318;-36.550;-64.300;2023-08-08T14:31:25;8.10;73.40
81867;DHT22;71318;-36.550;-64.300;2023-08-08T14:33:52;8.40;71.60
81867;DHT22;71318;-36.550;-64.300;2023-08-08T14:36:18;8.30;71.60
81867;DHT22;71318;-36.550;-64.300;2023-08-08T14:38:48;8.50;71.10
81867;DHT22;71318;-36.550;-64.300;2023-08-08T14:41:14;8.60;71.00
81867;DHT22;71318;-36.550;-64.300;2023-08-08T14:43:40;8.60;70.70
81867;DHT22;71318;-36.550;-64.300;2023-08-08T14:46:07;8.50;70.30
81867;DHT22;71318;-36.550;-64.300;2023-08-08T14:48:33;8.30;71.50
81867;DHT22;71318;-36.550;-64.300;2023-08-08T14:51:00;8.10;71.90
81867;DHT22;71318;-36.550;-64.300;2023-08-08T14:53:26;8.20;72.00
81867;DHT22;71318;-36.550;-64.300;2023-08-08T14:55:52;8.30;72.40
81867;DHT22;71318;-36.550;-64.300;2023-08-08T14:58:19;8.40;71.80
81867;DHT22;71318;-36.550;-64.300;2023-08-08T15:00:45;8.30;72.00
81867;DHT22;71318;-36.550;-64.300;2023-08-08T15:03:12;8.40;71.80